Time;durP1;ratioP1;P1;durP2;ratioP2;P2;SDS_P1;SDS_P2;PMS_P1;PMS_P2;Temp;Humidity;BMP_temperature;BMP_pressure;BME280_temperature;BME280_humidity;BME280_pressure;Samples;Min_cycle;Max_cycle;Signal;HPM_P1;HPM_P2
2021/12/03 00:00:38;;;;;;;3.38;1.83;;;;;;;;;;4968104;28;20120;-65
2021/12/03 00:03:04;;;;;;;1.83;1.45;;;;;;;;;;4963391;28;20022;-66
2021/12/03 00:05:30;;;;;;;1.58;1.40;;;;;;;;;;4964894;28;20113;-66
2021/12/03 00:07:56;;;;;;;1.50;1.35;;;;;;;;;;4968906;28;20114;-66
2021/12/03 00:10:24;;;;;;;2.10;1.60;;;;;;;;;;4968678;28;20026;-66
2021/12/03 00:12:50;;;;;;;2.03;1.77;;;;;;;;;;4968130;28;20121;-65
2021/12/03 00:15:16;;;;;;;3.28;2.00;;;;;;;;;;4967070;28;20037;-66
2021/12/03 00:17:42;;;;;;;2.42;1.80;;;;;;;;;;4960406;28;20206;-65
2021/12/03 00:20:12;;;;;;;2.13;1.73;;;;;;;;;;4966573;28;20122;-67
2021/12/03 00:22:38;;;;;;;3.47;1.67;;;;;;;;;;4979074;28;20514;-66
2021/12/03 00:25:04;;;;;;;3.70;1.77;;;;;;;;;;4963867;28;20026;-65
2021/12/03 00:27:30;;;;;;;1.67;1.40;;;;;;;;;;4969663;28;20129;-65
2021/12/03 00:29:56;;;;;;;2.25;1.75;;;;;;;;;;4967213;28;20162;-65
2021/12/03 00:32:21;;;;;;;4.80;2.00;;;;;;;;;;4968285;28;20070;-65
2021/12/03 00:34:47;;;;;;;2.00;1.80;;;;;;;;;;4969519;28;20117;-66
2021/12/03 00:37:12;;;;;;;2.22;1.80;;;;;;;;;;4965515;28;20030;-66
2021/12/03 00:39:38;;;;;;;4.53;2.28;;;;;;;;;;4965138;28;20046;-67
2021/12/03 00:42:04;;;;;;;3.85;2.10;;;;;;;;;;4963757;28;20053;-66
2021/12/03 00:44:30;;;;;;;4.55;2.25;;;;;;;;;;4967467;28;20037;-66
2021/12/03 00:46:57;;;;;;;3.90;2.38;;;;;;;;;;4963888;28;20106;-66
2021/12/03 00:49:23;;;;;;;2.45;2.08;;;;;;;;;;4965183;28;20034;-67
2021/12/03 00:51:48;;;;;;;5.20;2.13;;;;;;;;;;4964967;28;20046;-66
2021/12/03 00:54:14;;;;;;;4.20;2.72;;;;;;;;;;4967023;28;20058;-67
2021/12/03 00:56:40;;;;;;;4.88;2.58;;;;;;;;;;4968492;28;20027;-66
2021/12/03 00:59:06;;;;;;;5.10;2.70;;;;;;;;;;4966010;28;20526;-65
2021/12/03 01:01:32;;;;;;;5.85;2.90;;;;;;;;;;4967445;28;20034;-67
2021/12/03 01:03:58;;;;;;;3.28;2.75;;;;;;;;;;4965863;28;20046;-65
2021/12/03 01:06:25;;;;;;;3.75;2.83;;;;;;;;;;4964560;28;20027;-67
2021/12/03 01:08:50;;;;;;;6.00;3.50;;;;;;;;;;4967922;28;20538;-65
2021/12/03 01:11:19;;;;;;;5.53;3.30;;;;;;;;;;4967769;28;20083;-65
2021/12/03 01:13:45;;;;;;;5.03;3.35;;;;;;;;;;4969051;28;20038;-67
2021/12/03 01:16:12;;;;;;;5.68;3.53;;;;;;;;;;4963955;28;20038;-67
2021/12/03 01:18:39;;;;;;;9.10;4.10;;;;;;;;;;4968063;28;20047;-67
2021/12/03 01:21:06;;;;;;;4.80;3.92;;;;;;;;;;4969972;28;20037;-67
2021/12/03 01:23:32;;;;;;;4.60;3.50;;;;;;;;;;4964662;28;20406;-66
2021/12/03 01:25:58;;;;;;;5.75;3.50;;;;;;;;;;4965341;28;20116;-66
2021/12/03 01:28:26;;;;;;;5.28;3.75;;;;;;;;;;4966464;28;20433;-67
2021/12/03 01:30:52;;;;;;;5.75;3.58;;;;;;;;;;4962935;28;20041;-67
2021/12/03 01:33:17;;;;;;;6.07;4.13;;;;;;;;;;4965609;28;20392;-67
2021/12/03 01:35:43;;;;;;;6.15;4.15;;;;;;;;;;4965865;28;20023;-68
2021/12/03 01:38:08;;;;;;;5.75;3.85;;;;;;;;;;4966861;28;20035;-66
2021/12/03 01:40:35;;;;;;;6.18;3.95;;;;;;;;;;4968906;28;20037;-65
2021/12/03 01:43:03;;;;;;;6.18;4.22;;;;;;;;;;4966151;28;20026;-65
2021/12/03 01:45:32;;;;;;;6.82;4.40;;;;;;;;;;4967613;28;20069;-65
2021/12/03 01:47:59;;;;;;;7.15;4.65;;;;;;;;;;4968111;28;20035;-67
2021/12/03 01:50:35;;;;;;;9.27;5.00;;;;;;;;;;4968331;28;20027;-65
2021/12/03 01:53:02;;;;;;;7.80;5.05;;;;;;;;;;4966150;28;20348;-64
2021/12/03 01:55:27;;;;;;;7.80;5.30;;;;;;;;;;4966060;28;20383;-65
2021/12/03 01:57:53;;;;;;;8.20;5.47;;;;;;;;;;4966498;28;20146;-65
2021/12/03 02:00:25;;;;;;;8.20;5.10;;;;;;;;;;4964496;28;20026;-63
2021/12/03 02:02:51;;;;;;;11.02;4.65;;;;;;;;;;4964440;28;20031;-64
2021/12/03 02:05:16;;;;;;;7.38;4.97;;;;;;;;;;4966758;28;20018;-64
2021/12/03 02:07:43;;;;;;;9.15;5.45;;;;;;;;;;4963133;28;20042;-64
2021/12/03 02:10:10;;;;;;;8.75;5.20;;;;;;;;;;4968159;28;20037;-66
2021/12/03 02:12:35;;;;;;;6.40;5.00;;;;;;;;;;4965612;28;20160;-66
2021/12/03 02:15:01;;;;;;;8.73;5.28;;;;;;;;;;4965153;28;20055;-64
2021/12/03 02:17:26;;;;;;;7.97;5.35;;;;;;;;;;4962202;28;20038;-65
2021/12/03 02:19:52;;;;;;;7.95;5.45;;;;;;;;;;4962785;28;20047;-65
2021/12/03 02:22:18;;;;;;;8.52;4.75;;;;;;;;;;4965719;28;20127;-67
2021/12/03 02:24:43;;;;;;;9.25;5.68;;;;;;;;;;4966553;28;20451;-65
2021/12/03 02:27:09;;;;;;;5.68;4.47;;;;;;;;;;4963003;28;20459;-65
2021/12/03 02:29:34;;;;;;;6.40;5.22;;;;;;;;;;4968075;28;20063;-65
2021/12/03 02:32:00;;;;;;;10.10;5.15;;;;;;;;;;4962484;28;20071;-65
2021/12/03 02:34:25;;;;;;;8.07;5.47;;;;;;;;;;4963829;28;20121;-65
2021/12/03 02:36:51;;;;;;;9.10;5.70;;;;;;;;;;4962511;28;20035;-65
2021/12/03 02:39:16;;;;;;;9.18;5.45;;;;;;;;;;4965323;28;20056;-66
2021/12/03 02:41:42;;;;;;;7.45;5.50;;;;;;;;;;4967157;28;20035;-64
2021/12/03 02:44:07;;;;;;;8.45;5.40;;;;;;;;;;4964397;28;20460;-64
2021/12/03 02:46:33;;;;;;;10.38;5.35;;;;;;;;;;4964376;28;20118;-64
2021/12/03 02:48:58;;;;;;;8.52;5.65;;;;;;;;;;4965293;28;20038;-65
2021/12/03 02:51:24;;;;;;;9.63;5.82;;;;;;;;;;4963967;28;20035;-65
2021/12/03 02:53:49;;;;;;;8.57;5.88;;;;;;;;;;4966963;28;20518;-65
2021/12/03 02:56:15;;;;;;;7.25;5.47;;;;;;;;;;4968227;28;20077;-64
2021/12/03 02:58:40;;;;;;;9.60;6.03;;;;;;;;;;4968717;28;20507;-70
2021/12/03 03:01:09;;;;;;;10.73;6.70;;;;;;;;;;4966800;28;20045;-65
2021/12/03 03:03:35;;;;;;;10.65;6.40;;;;;;;;;;4965948;28;20039;-65
2021/12/03 03:06:02;;;;;;;9.43;6.32;;;;;;;;;;4970580;28;20110;-65
2021/12/03 03:08:28;;;;;;;8.93;5.43;;;;;;;;;;4966950;28;20054;-65
2021/12/03 03:10:56;;;;;;;10.68;6.57;;;;;;;;;;4968760;28;20042;-65
2021/12/03 03:13:22;;;;;;;10.13;6.25;;;;;;;;;;4968638;28;20114;-66
2021/12/03 03:15:48;;;;;;;12.82;6.57;;;;;;;;;;4967617;28;20035;-66
2021/12/03 03:18:13;;;;;;;11.15;5.78;;;;;;;;;;4967938;28;20482;-66
2021/12/03 03:20:41;;;;;;;10.55;6.15;;;;;;;;;;4969139;28;20041;-65
2021/12/03 03:23:07;;;;;;;9.75;6.25;;;;;;;;;;4972080;28;20024;-66
2021/12/03 03:25:33;;;;;;;10.63;6.68;;;;;;;;;;4969868;28;20399;-66
2021/12/03 03:27:59;;;;;;;9.13;6.57;;;;;;;;;;4964668;28;20084;-65
2021/12/03 03:30:24;;;;;;;11.98;6.22;;;;;;;;;;4969530;28;20093;-66
2021/12/03 03:32:50;;;;;;;12.57;6.38;;;;;;;;;;4968899;28;20050;-67
2021/12/03 03:35:16;;;;;;;9.05;6.60;;;;;;;;;;4964862;28;20081;-65
2021/12/03 03:37:41;;;;;;;12.02;6.07;;;;;;;;;;4967311;28;20034;-67
2021/12/03 03:40:08;;;;;;;12.88;6.57;;;;;;;;;;4966701;28;20371;-66
2021/12/03 03:42:34;;;;;;;12.15;6.45;;;;;;;;;;4969054;28;20041;-66
2021/12/03 03:45:00;;;;;;;12.35;6.45;;;;;;;;;;4966235;28;20185;-68
2021/12/03 03:47:26;;;;;;;12.77;7.03;;;;;;;;;;4967782;28;20038;-67
2021/12/03 03:49:51;;;;;;;11.13;6.60;;;;;;;;;;4969627;28;20379;-66
2021/12/03 03:52:17;;;;;;;10.98;6.25;;;;;;;;;;4966777;28;20628;-65
2021/12/03 03:54:43;;;;;;;10.15;6.20;;;;;;;;;;4970338;28;20549;-66
2021/12/03 03:57:08;;;;;;;11.70;6.75;;;;;;;;;;4968994;28;20535;-64
2021/12/03 03:59:34;;;;;;;12.98;6.65;;;;;;;;;;4966209;28;20069;-64
2021/12/03 04:01:59;;;;;;;12.30;6.43;;;;;;;;;;4968408;28;20045;-64
2021/12/03 04:04:25;;;;;;;10.73;6.10;;;;;;;;;;4965995;28;20079;-64
2021/12/03 04:06:51;;;;;;;11.65;5.90;;;;;;;;;;4966712;28;20030;-64
2021/12/03 04:09:17;;;;;;;9.00;5.57;;;;;;;;;;4967346;28;21045;-65
2021/12/03 04:11:43;;;;;;;9.15;5.32;;;;;;;;;;4967539;28;20136;-65
2021/12/03 04:14:08;;;;;;;9.38;5.60;;;;;;;;;;4969558;28;20113;-64
2021/12/03 04:16:34;;;;;;;11.52;4.93;;;;;;;;;;4966603;28;20026;-64
2021/12/03 04:18:59;;;;;;;11.70;5.50;;;;;;;;;;4963403;28;20458;-64
2021/12/03 04:21:25;;;;;;;9.68;5.70;;;;;;;;;;4965932;28;20224;-65
2021/12/03 04:23:51;;;;;;;8.20;4.80;;;;;;;;;;4962971;28;20031;-65
2021/12/03 04:26:17;;;;;;;7.78;5.03;;;;;;;;;;4968927;28;20465;-64
2021/12/03 04:28:42;;;;;;;11.07;5.78;;;;;;;;;;4967821;28;20066;-64
2021/12/03 04:31:08;;;;;;;8.45;4.90;;;;;;;;;;4968724;28;20039;-66
2021/12/03 04:33:33;;;;;;;7.57;5.18;;;;;;;;;;4966556;28;20037;-66
2021/12/03 04:35:59;;;;;;;12.93;5.50;;;;;;;;;;4964663;28;20113;-66
2021/12/03 04:38:24;;;;;;;7.72;4.45;;;;;;;;;;4966217;28;20026;-66
2021/12/03 04:40:50;;;;;;;8.25;4.97;;;;;;;;;;4966694;28;20045;-66
2021/12/03 04:43:16;;;;;;;9.93;4.75;;;;;;;;;;4967447;28;20027;-66
2021/12/03 04:45:42;;;;;;;9.63;5.47;;;;;;;;;;4966706;28;20027;-65
2021/12/03 04:48:07;;;;;;;15.43;7.82;;;;;;;;;;4966804;28;20031;-65
2021/12/03 04:50:39;;;;;;;11.55;5.25;;;;;;;;;;4966162;28;20045;-65
2021/12/03 04:53:06;;;;;;;10.27;5.00;;;;;;;;;;4961546;28;20401;-65
2021/12/03 04:55:32;;;;;;;6.93;4.53;;;;;;;;;;4964445;28;20054;-66
2021/12/03 04:57:58;;;;;;;6.55;4.25;;;;;;;;;;4966896;28;20715;-66
2021/12/03 05:00:36;;;;;;;8.32;4.97;;;;;;;;;;4964694;28;20125;-66
2021/12/03 05:03:01;;;;;;;6.85;4.68;;;;;;;;;;4964698;28;20483;-66
2021/12/03 05:05:32;;;;;;;9.35;5.20;;;;;;;;;;4963854;28;20079;-66
2021/12/03 05:07:58;;;;;;;10.02;4.60;;;;;;;;;;4966329;28;20034;-65
2021/12/03 05:10:26;;;;;;;6.70;4.57;;;;;;;;;;4965673;28;20038;-66
2021/12/03 05:12:55;;;;;;;8.07;4.57;;;;;;;;;;4964343;28;20039;-65
2021/12/03 05:15:21;;;;;;;8.25;4.75;;;;;;;;;;4965406;28;20023;-65
2021/12/03 05:17:46;;;;;;;9.07;5.28;;;;;;;;;;4961913;28;20026;-65
2021/12/03 05:20:11;;;;;;;10.15;4.95;;;;;;;;;;4968055;28;20037;-66
2021/12/03 05:22:37;;;;;;;8.70;4.32;;;;;;;;;;4964889;28;20337;-65
2021/12/03 05:25:02;;;;;;;7.82;4.22;;;;;;;;;;4963789;28;20039;-65
2021/12/03 05:27:28;;;;;;;8.05;4.82;;;;;;;;;;4961925;28;20948;-65
2021/12/03 05:29:53;;;;;;;9.38;4.70;;;;;;;;;;4965082;28;20121;-63
2021/12/03 05:32:19;;;;;;;14.00;5.95;;;;;;;;;;4964532;28;20022;-64
2021/12/03 05:34:45;;;;;;;15.60;6.60;;;;;;;;;;4964171;28;20031;-64
2021/12/03 05:37:10;;;;;;;17.05;5.55;;;;;;;;;;4966303;28;20153;-66
2021/12/03 05:39:37;;;;;;;12.65;5.45;;;;;;;;;;4969409;28;20027;-65
2021/12/03 05:42:03;;;;;;;8.23;4.55;;;;;;;;;;4967305;28;20035;-65
2021/12/03 05:44:30;;;;;;;8.65;4.97;;;;;;;;;;4965018;28;20111;-65
2021/12/03 05:46:56;;;;;;;7.18;4.55;;;;;;;;;;4963030;28;20031;-65
2021/12/03 05:49:22;;;;;;;10.25;4.90;;;;;;;;;;4965841;28;20022;-65
2021/12/03 05:51:50;;;;;;;8.10;4.82;;;;;;;;;;4964794;28;20037;-65
2021/12/03 05:54:16;;;;;;;7.40;4.07;;;;;;;;;;4965156;28;20465;-66
2021/12/03 05:56:41;;;;;;;8.40;5.03;;;;;;;;;;4966136;28;20034;-66
2021/12/03 05:59:06;;;;;;;6.68;4.25;;;;;;;;;;4962554;28;20410;-65
2021/12/03 06:01:32;;;;;;;7.43;4.35;;;;;;;;;;4964775;28;20511;-65
2021/12/03 06:03:59;;;;;;;7.10;4.28;;;;;;;;;;4967525;28;20041;-65
2021/12/03 06:06:25;;;;;;;7.78;4.32;;;;;;;;;;4967013;28;20027;-64
2021/12/03 06:08:50;;;;;;;6.72;4.70;;;;;;;;;;4967648;28;20029;-64
2021/12/03 06:11:16;;;;;;;7.57;4.28;;;;;;;;;;4966721;28;20034;-64
2021/12/03 06:13:42;;;;;;;6.75;4.65;;;;;;;;;;4965257;28;20041;-65
2021/12/03 06:16:09;;;;;;;6.95;4.60;;;;;;;;;;4968233;28;20464;-64
2021/12/03 06:18:35;;;;;;;7.43;4.22;;;;;;;;;;4966218;28;20538;-65
2021/12/03 06:21:03;;;;;;;7.00;4.53;;;;;;;;;;4966820;28;20023;-64
2021/12/03 06:23:29;;;;;;;6.78;4.40;;;;;;;;;;4967632;28;20038;-65
2021/12/03 06:25:55;;;;;;;7.13;4.22;;;;;;;;;;4966920;28;20081;-63
2021/12/03 06:28:20;;;;;;;9.73;4.75;;;;;;;;;;4965779;28;20372;-63
2021/12/03 06:30:46;;;;;;;8.70;4.57;;;;;;;;;;4968483;28;20034;-63
2021/12/03 06:33:11;;;;;;;13.40;5.25;;;;;;;;;;4966877;28;20110;-63
2021/12/03 06:35:37;;;;;;;9.32;5.15;;;;;;;;;;4970273;28;20022;-63
2021/12/03 06:38:02;;;;;;;8.82;4.43;;;;;;;;;;4971130;28;20038;-63
2021/12/03 06:40:28;;;;;;;7.30;4.53;;;;;;;;;;4971396;28;20031;-63
2021/12/03 06:42:53;;;;;;;9.38;4.28;;;;;;;;;;4964071;28;20030;-63
2021/12/03 06:45:20;;;;;;;7.10;4.10;;;;;;;;;;4967893;28;20158;-63
2021/12/03 06:47:45;;;;;;;8.68;4.50;;;;;;;;;;4968683;28;21126;-63
2021/12/03 06:50:16;;;;;;;6.82;4.00;;;;;;;;;;4965318;28;20133;-64
2021/12/03 06:52:44;;;;;;;9.43;4.35;;;;;;;;;;4964327;28;20037;-64
2021/12/03 06:55:13;;;;;;;9.68;4.43;;;;;;;;;;4967695;28;20373;-63
2021/12/03 06:57:41;;;;;;;9.10;3.97;;;;;;;;;;4968079;28;20034;-64
2021/12/03 07:00:09;;;;;;;12.15;5.47;;;;;;;;;;4969429;28;20046;-63
2021/12/03 07:02:34;;;;;;;7.68;4.30;;;;;;;;;;4970011;28;20026;-63
2021/12/03 07:05:00;;;;;;;7.15;4.50;;;;;;;;;;4969952;28;20074;-63
2021/12/03 07:07:25;;;;;;;9.98;4.85;;;;;;;;;;4966314;28;20053;-64
2021/12/03 07:09:51;;;;;;;10.85;5.38;;;;;;;;;;4968604;28;20057;-63
2021/12/03 07:12:16;;;;;;;9.15;4.88;;;;;;;;;;4967628;28;20062;-64
2021/12/03 07:14:41;;;;;;;10.20;4.57;;;;;;;;;;4969243;28;20102;-65
2021/12/03 07:17:07;;;;;;;9.30;4.60;;;;;;;;;;4965773;28;20030;-63
2021/12/03 07:19:33;;;;;;;6.00;4.20;;;;;;;;;;4968986;28;20065;-63
2021/12/03 07:21:59;;;;;;;9.02;4.07;;;;;;;;;;4968423;28;20046;-63
2021/12/03 07:24:24;;;;;;;6.57;3.85;;;;;;;;;;4969296;28;20030;-64
2021/12/03 07:26:51;;;;;;;7.47;4.05;;;;;;;;;;4966490;28;20586;-63
2021/12/03 07:29:16;;;;;;;8.52;4.28;;;;;;;;;;4969009;28;20444;-64
2021/12/03 07:31:42;;;;;;;6.55;4.15;;;;;;;;;;4969549;28;20031;-63
2021/12/03 07:34:09;;;;;;;7.80;4.38;;;;;;;;;;4965475;28;20027;-64
2021/12/03 07:36:34;;;;;;;8.02;4.15;;;;;;;;;;4969755;28;20035;-63
2021/12/03 07:38:59;;;;;;;9.85;4.55;;;;;;;;;;4969530;28;20050;-62
2021/12/03 07:41:25;;;;;;;9.23;4.35;;;;;;;;;;4971404;28;20026;-62
2021/12/03 07:50:46;;;;;;;9.68;4.47;;;;;;;;;;4965834;28;20049;-62
2021/12/03 07:53:14;;;;;;;9.73;4.20;;;;;;;;;;4965957;28;20035;-63
2021/12/03 07:55:40;;;;;;;8.27;4.30;;;;;;;;;;4968358;28;20456;-62
2021/12/03 07:58:07;;;;;;;7.85;4.05;;;;;;;;;;4965925;28;20035;-62
2021/12/03 08:00:33;;;;;;;6.78;4.00;;;;;;;;;;4965712;28;20106;-62
2021/12/03 08:02:58;;;;;;;9.98;4.57;;;;;;;;;;4968877;28;20035;-63
2021/12/03 08:05:24;;;;;;;6.97;4.22;;;;;;;;;;4967703;28;20039;-63
2021/12/03 08:07:50;;;;;;;8.15;4.43;;;;;;;;;;4960361;28;20042;-62
2021/12/03 08:10:16;;;;;;;8.18;4.65;;;;;;;;;;4965322;28;20045;-63
2021/12/03 08:12:43;;;;;;;10.98;5.05;;;;;;;;;;4966927;28;20027;-64
2021/12/03 08:15:09;;;;;;;7.10;4.20;;;;;;;;;;4966908;28;20022;-60
2021/12/03 08:17:35;;;;;;;6.68;3.88;;;;;;;;;;4967855;28;20035;-63
2021/12/03 08:20:00;;;;;;;6.13;4.03;;;;;;;;;;4963936;28;20035;-61
2021/12/03 08:22:26;;;;;;;8.07;4.10;;;;;;;;;;4968427;28;20030;-63
2021/12/03 08:24:51;;;;;;;7.70;4.35;;;;;;;;;;4968570;28;20027;-63
2021/12/03 08:27:17;;;;;;;6.68;3.95;;;;;;;;;;4966824;28;20034;-64
2021/12/03 08:29:42;;;;;;;8.48;4.05;;;;;;;;;;4963832;28;20041;-64
2021/12/03 08:32:10;;;;;;;10.80;3.97;;;;;;;;;;4966660;28;20169;-64
2021/12/03 08:34:36;;;;;;;6.40;3.90;;;;;;;;;;4967665;28;20185;-65
2021/12/03 08:37:02;;;;;;;10.18;3.88;;;;;;;;;;4968440;28;20058;-64
2021/12/03 08:39:30;;;;;;;9.20;3.78;;;;;;;;;;4965553;28;20026;-64
2021/12/03 08:41:56;;;;;;;5.22;3.40;;;;;;;;;;4965634;28;20106;-65
2021/12/03 08:44:22;;;;;;;7.82;3.47;;;;;;;;;;4969184;28;20169;-63
2021/12/03 08:46:51;;;;;;;8.63;3.80;;;;;;;;;;4966818;28;20026;-65
2021/12/03 08:57:23;;;;;;;8.20;4.10;;;;;;;;;;4961444;28;20053;-65
2021/12/03 08:59:51;;;;;;;6.57;3.35;;;;;;;;;;4962551;28;20134;-64
2021/12/03 09:02:17;;;;;;;7.80;4.10;;;;;;;;;;4968892;28;20030;-63
2021/12/03 09:04:46;;;;;;;9.93;4.00;;;;;;;;;;4967930;28;20034;-65
2021/12/03 09:07:12;;;;;;;8.05;4.15;;;;;;;;;;4965005;28;20030;-64
2021/12/03 09:09:37;;;;;;;6.47;3.97;;;;;;;;;;4969026;28;20022;-64
2021/12/03 09:12:03;;;;;;;10.95;4.15;;;;;;;;;;4966899;28;20070;-62
2021/12/03 09:19:49;;;;;;;7.75;3.92;;;;;;;;;;4960258;28;20053;-64
2021/12/03 09:22:26;;;;;;;7.70;4.43;;;;;;;;;;4962393;28;21345;-64
2021/12/03 09:24:52;;;;;;;8.15;4.13;;;;;;;;;;4962510;28;20034;-65
2021/12/03 09:27:20;;;;;;;7.00;3.85;;;;;;;;;;4959576;28;20035;-64
2021/12/03 09:29:45;;;;;;;6.97;4.28;;;;;;;;;;4963567;28;20455;-61
2021/12/03 09:32:20;;;;;;;6.38;4.07;;;;;;;;;;4961827;28;20046;-64
2021/12/03 09:34:45;;;;;;;6.95;4.05;;;;;;;;;;4963127;28;20029;-64
2021/12/03 09:37:11;;;;;;;5.57;3.72;;;;;;;;;;4961623;28;20019;-64
2021/12/03 09:39:40;;;;;;;5.68;3.33;;;;;;;;;;4966274;28;20472;-64
2021/12/03 09:42:06;;;;;;;5.57;3.10;;;;;;;;;;4966749;28;20027;-64
2021/12/03 09:44:32;;;;;;;6.97;3.03;;;;;;;;;;4966277;28;20030;-63
2021/12/03 09:47:06;;;;;;;5.78;2.88;;;;;;;;;;4962420;28;20498;-64
2021/12/03 09:49:36;;;;;;;4.90;2.70;;;;;;;;;;4974532;28;20031;-63
2021/12/03 09:52:19;;;;;;;6.05;2.60;;;;;;;;;;4962820;28;20341;-62
2021/12/03 09:54:46;;;;;;;4.50;1.95;;;;;;;;;;4962211;28;20024;-63
2021/12/03 09:57:21;;;;;;;9.10;2.20;;;;;;;;;;4960210;28;20113;-64
2021/12/03 10:13:25;;;;;;;5.45;2.53;;;;;;;;;;4968132;28;20073;-63
2021/12/03 10:16:03;;;;;;;8.50;3.00;;;;;;;;;;4970594;28;20022;-62
2021/12/03 10:18:47;;;;;;;6.13;2.60;;;;;;;;;;4966860;28;20097;-63
2021/12/03 10:34:44;;;;;;;6.88;2.85;;;;;;;;;;4964336;28;20030;-63
2021/12/03 10:42:37;;;;;;;5.20;2.38;;;;;;;;;;4965495;28;20454;-63
2021/12/03 11:02:06;;;;;;;7.03;2.83;;;;;;;;;;4964773;28;21097;-65
2021/12/03 11:39:50;;;;;;;5.75;2.83;;;;;;;;;;4963844;28;20042;-63
2021/12/03 12:00:00;;;;;;;5.03;2.88;;;;;;;;;;4967959;28;20181;-65
2021/12/03 13:56:41;;;;;;;12.85;3.33;;;;;;;;;;4948777;28;20496;-67
2021/12/03 14:07:09;;;;;;;7.95;2.97;;;;;;;;;;4964506;28;20033;-64
2021/12/03 14:09:43;;;;;;;7.05;2.92;;;;;;;;;;4964827;28;20046;-64
2021/12/03 14:16:53;;;;;;;5.50;3.00;;;;;;;;;;4968691;28;20115;-64
2021/12/03 14:44:18;;;;;;;11.10;3.88;;;;;;;;;;4969375;28;20034;-66
2021/12/03 14:52:14;;;;;;;7.95;4.05;;;;;;;;;;4971579;28;20038;-65
2021/12/03 15:05:39;;;;;;;6.80;3.55;;;;;;;;;;4969296;28;20126;-63
2021/12/03 15:08:06;;;;;;;4.95;3.20;;;;;;;;;;4966669;28;20062;-63
2021/12/03 15:29:39;;;;;;;8.55;3.25;;;;;;;;;;4966084;28;20066;-63
2021/12/03 15:32:14;;;;;;;5.05;2.88;;;;;;;;;;4965933;28;20062;-64
2021/12/03 15:54:00;;;;;;;4.72;2.60;;;;;;;;;;4967332;28;20029;-64
2021/12/03 15:58:30;;;;;;;5.07;2.38;;;;;;;;;;4964730;28;20037;-65
2021/12/03 16:03:50;;;;;;;5.03;2.13;;;;;;;;;;4966349;28;20105;-64
2021/12/03 16:08:49;;;;;;;4.20;2.53;;;;;;;;;;4969515;28;20027;-65
2021/12/03 16:19:27;;;;;;;4.38;2.47;;;;;;;;;;4968949;28;20026;-66
2021/12/03 16:25:16;;;;;;;4.78;2.20;;;;;;;;;;4964317;28;20043;-66
2021/12/03 16:46:54;;;;;;;4.07;2.08;;;;;;;;;;4969448;28;20050;-66
2021/12/03 16:51:54;;;;;;;6.10;2.38;;;;;;;;;;4967440;28;20066;-66
2021/12/03 16:54:36;;;;;;;4.70;2.20;;;;;;;;;;4968136;28;20027;-66
2021/12/03 16:57:02;;;;;;;4.63;2.22;;;;;;;;;;4969517;28;20038;-67
2021/12/03 16:59:28;;;;;;;7.32;2.25;;;;;;;;;;4966153;28;20039;-66
2021/12/03 17:02:05;;;;;;;7.55;2.25;;;;;;;;;;4966836;28;20121;-65
2021/12/03 17:04:46;;;;;;;5.05;2.35;;;;;;;;;;4964361;28;20019;-66
2021/12/03 17:10:24;;;;;;;3.05;2.30;;;;;;;;;;4974886;28;20039;-67
2021/12/03 17:16:01;;;;;;;6.95;2.50;;;;;;;;;;4967928;28;20030;-65
2021/12/03 17:21:48;;;;;;;3.92;2.38;;;;;;;;;;4966663;28;20086;-64
2021/12/03 17:49:14;;;;;;;3.22;2.28;;;;;;;;;;4963090;28;21565;-66
2021/12/03 17:54:24;;;;;;;5.78;2.30;;;;;;;;;;4966548;28;20114;-64
2021/12/03 17:56:52;;;;;;;6.22;2.65;;;;;;;;;;4964657;28;20151;-65
2021/12/03 17:59:33;;;;;;;4.07;2.45;;;;;;;;;;4967172;28;20137;-64
2021/12/03 18:02:07;;;;;;;5.10;2.38;;;;;;;;;;4961415;28;20058;-65
2021/12/03 18:07:09;;;;;;;5.82;2.50;;;;;;;;;;4967403;28;20046;-64
2021/12/03 18:55:50;;;;;;;9.18;2.47;;;;;;;;;;4969003;28;20185;-67
2021/12/03 18:58:16;;;;;;;7.90;2.38;;;;;;;;;;4970121;28;20041;-65
2021/12/03 19:00:44;;;;;;;5.97;2.60;;;;;;;;;;4968051;28;20520;-65
2021/12/03 19:11:05;;;;;;;4.35;2.42;;;;;;;;;;4965840;28;20023;-65
2021/12/03 19:13:37;;;;;;;6.35;2.75;;;;;;;;;;4968769;28;20457;-65
2021/12/03 19:16:04;;;;;;;4.20;2.72;;;;;;;;;;4968657;28;20344;-65
2021/12/03 19:18:30;;;;;;;6.13;3.13;;;;;;;;;;4967669;28;20034;-64
2021/12/03 19:20:57;;;;;;;6.22;3.00;;;;;;;;;;4969542;28;20038;-65
2021/12/03 19:23:22;;;;;;;4.93;2.80;;;;;;;;;;4963751;28;20034;-66
2021/12/03 19:25:49;;;;;;;5.10;2.22;;;;;;;;;;4965635;28;20026;-65
2021/12/03 19:28:15;;;;;;;5.32;2.17;;;;;;;;;;4965751;28;20023;-65
2021/12/03 19:30:41;;;;;;;4.05;2.47;;;;;;;;;;4965252;28;20074;-65
2021/12/03 19:33:06;;;;;;;3.28;2.33;;;;;;;;;;4967734;28;20058;-64
2021/12/03 19:35:32;;;;;;;4.00;2.30;;;;;;;;;;4969054;28;20023;-65
2021/12/03 19:38:01;;;;;;;5.80;2.65;;;;;;;;;;4964359;28;20145;-65
2021/12/03 19:40:31;;;;;;;4.55;2.22;;;;;;;;;;4968630;28;20391;-65
2021/12/03 19:43:01;;;;;;;3.58;2.00;;;;;;;;;;4965882;28;20027;-66
2021/12/03 19:45:32;;;;;;;2.45;1.92;;;;;;;;;;4966595;28;20037;-66
2021/12/03 19:48:12;;;;;;;4.32;2.35;;;;;;;;;;4968466;28;20027;-65
2021/12/03 19:50:42;;;;;;;5.53;2.22;;;;;;;;;;4964833;28;20050;-65
2021/12/03 19:53:16;;;;;;;2.70;1.95;;;;;;;;;;4966472;28;20397;-65
2021/12/03 19:55:44;;;;;;;4.15;2.03;;;;;;;;;;4964656;28;20031;-66
2021/12/03 19:58:12;;;;;;;3.53;2.13;;;;;;;;;;4967736;28;20738;-65
2021/12/03 20:00:39;;;;;;;3.33;1.83;;;;;;;;;;4966054;28;20026;-65
2021/12/03 20:03:05;;;;;;;4.22;2.30;;;;;;;;;;4967414;28;20031;-66
2021/12/03 20:05:30;;;;;;;6.55;2.78;;;;;;;;;;4967286;28;20475;-66
2021/12/03 20:07:59;;;;;;;4.68;2.05;;;;;;;;;;4968617;28;20372;-66
2021/12/03 20:10:26;;;;;;;2.95;1.92;;;;;;;;;;4966564;28;20031;-65
2021/12/03 20:12:52;;;;;;;4.28;1.90;;;;;;;;;;4967414;28;20034;-65
2021/12/03 20:15:51;;;;;;;2.80;1.90;;;;;;;;;;4966857;28;20044;-66
2021/12/03 20:20:31;;;;;;;6.65;2.17;;;;;;;;;;4968138;28;20114;-66
2021/12/03 20:23:04;;;;;;;4.68;1.90;;;;;;;;;;4965413;28;20497;-66
2021/12/03 20:28:12;;;;;;;4.70;2.08;;;;;;;;;;4964439;28;20154;-66
2021/12/03 20:31:03;;;;;;;6.70;1.95;;;;;;;;;;4967604;28;20121;-66
2021/12/03 20:38:50;;;;;;;3.47;1.83;;;;;;;;;;4966757;28;20027;-66
2021/12/03 20:41:26;;;;;;;4.78;2.00;;;;;;;;;;4964955;28;20030;-66
2021/12/03 20:47:14;;;;;;;6.57;2.50;;;;;;;;;;4974851;28;20155;-66
2021/12/03 21:08:43;;;;;;;4.95;2.33;;;;;;;;;;4966444;28;20096;-67
2021/12/03 21:11:18;;;;;;;3.63;2.17;;;;;;;;;;4963931;28;20031;-67
2021/12/03 21:13:47;;;;;;;5.03;1.92;;;;;;;;;;4964174;28;20027;-67
2021/12/03 21:16:29;;;;;;;3.90;1.90;;;;;;;;;;4963427;28;20031;-67
2021/12/03 21:21:37;;;;;;;3.20;1.90;;;;;;;;;;4965804;28;20086;-65
2021/12/03 21:24:05;;;;;;;3.13;1.80;;;;;;;;;;4961988;28;20522;-67
2021/12/03 21:26:32;;;;;;;4.07;1.90;;;;;;;;;;4967006;28;20023;-67
2021/12/03 21:39:36;;;;;;;4.95;2.50;;;;;;;;;;4965791;28;20329;-65
2021/12/03 21:42:02;;;;;;;5.65;1.90;;;;;;;;;;4964252;28;20030;-67
2021/12/03 21:44:27;;;;;;;4.22;2.05;;;;;;;;;;4968398;28;20379;-65
2021/12/03 21:46:53;;;;;;;4.80;2.42;;;;;;;;;;4965344;28;20431;-66
2021/12/03 21:49:19;;;;;;;3.42;2.00;;;;;;;;;;4967970;28;20129;-67
2021/12/03 21:51:45;;;;;;;2.80;1.80;;;;;;;;;;4966861;28;20372;-66
2021/12/03 21:54:13;;;;;;;3.42;1.80;;;;;;;;;;4969366;28;20063;-66
2021/12/03 21:56:41;;;;;;;4.05;1.90;;;;;;;;;;4966976;28;20685;-65
2021/12/03 21:59:06;;;;;;;3.60;1.90;;;;;;;;;;4965790;28;20436;-67
2021/12/03 22:01:33;;;;;;;4.93;2.28;;;;;;;;;;4968598;28;20200;-65
2021/12/03 22:03:59;;;;;;;4.65;2.00;;;;;;;;;;4970493;28;20074;-66
2021/12/03 22:06:28;;;;;;;5.22;2.17;;;;;;;;;;4966673;28;20035;-67
2021/12/03 22:08:56;;;;;;;5.88;1.80;;;;;;;;;;4966976;28;20034;-67
2021/12/03 22:11:22;;;;;;;7.13;2.13;;;;;;;;;;4968305;28;20057;-67
2021/12/03 22:13:47;;;;;;;5.20;1.90;;;;;;;;;;4967427;28;20035;-67
2021/12/03 22:16:13;;;;;;;4.93;1.98;;;;;;;;;;4952100;28;20459;-65
2021/12/03 22:18:38;;;;;;;5.55;2.65;;;;;;;;;;4969746;28;20247;-66
2021/12/03 22:21:07;;;;;;;7.70;2.30;;;;;;;;;;4966506;28;20026;-67
2021/12/03 22:23:34;;;;;;;5.10;2.05;;;;;;;;;;4971120;28;20022;-65
2021/12/03 22:26:02;;;;;;;4.85;2.40;;;;;;;;;;4971543;28;20027;-66
2021/12/03 22:28:27;;;;;;;6.47;2.70;;;;;;;;;;4968028;28;20031;-65
2021/12/03 22:30:53;;;;;;;5.40;3.13;;;;;;;;;;4970057;28;20053;-66
2021/12/03 22:33:21;;;;;;;6.78;3.13;;;;;;;;;;4968489;28;20041;-66
2021/12/03 22:35:47;;;;;;;5.60;2.90;;;;;;;;;;4966032;28;20134;-65
2021/12/03 22:38:12;;;;;;;6.32;2.97;;;;;;;;;;4972079;28;20464;-65
2021/12/03 22:40:41;;;;;;;5.65;3.15;;;;;;;;;;4965989;28;20193;-66
2021/12/03 22:43:10;;;;;;;5.93;2.92;;;;;;;;;;4967425;28;20035;-64
2021/12/03 22:45:43;;;;;;;8.57;2.70;;;;;;;;;;4970701;28;20030;-65
2021/12/03 22:48:33;;;;;;;4.43;2.63;;;;;;;;;;4969233;28;20034;-65
2021/12/03 22:53:43;;;;;;;3.50;2.63;;;;;;;;;;4967070;28;20132;-66
2021/12/03 22:56:09;;;;;;;7.75;3.10;;;;;;;;;;4970508;28;20026;-65
2021/12/03 22:58:35;;;;;;;4.05;2.67;;;;;;;;;;4968703;28;20027;-65
2021/12/03 23:01:04;;;;;;;6.82;3.05;;;;;;;;;;4967627;28;20034;-66
2021/12/03 23:03:32;;;;;;;7.70;3.20;;;;;;;;;;4968041;28;20038;-65
2021/12/03 23:05:58;;;;;;;5.82;2.92;;;;;;;;;;4966558;28;20027;-65
2021/12/03 23:08:24;;;;;;;5.13;2.97;;;;;;;;;;4964909;28;20034;-65
2021/12/03 23:10:51;;;;;;;4.90;2.92;;;;;;;;;;4962430;28;20034;-65
2021/12/03 23:13:17;;;;;;;7.15;3.05;;;;;;;;;;4963106;28;20058;-65